createdAt,value
2018-05-03T00:00:16.550Z,10.86
2018-05-03T00:02:42.363Z,10.78
2018-05-03T00:05:08.155Z,10.80
2018-05-03T00:07:33.955Z,10.71
2018-05-03T00:09:59.735Z,10.56
2018-05-03T00:12:25.530Z,10.57
2018-05-03T00:14:51.342Z,10.75
2018-05-03T00:17:17.117Z,10.74
2018-05-03T00:19:42.919Z,10.87
2018-05-03T00:22:08.715Z,10.86
2018-05-03T00:24:34.522Z,10.82
2018-05-03T00:27:00.314Z,10.69
2018-05-03T00:29:26.108Z,10.58
2018-05-03T00:31:51.917Z,10.55
2018-05-03T00:34:17.690Z,10.46
2018-05-03T00:36:43.707Z,10.79
2018-05-03T00:39:09.522Z,10.52
2018-05-03T00:41:35.310Z,10.39
2018-05-03T00:44:01.099Z,10.32
2018-05-03T00:46:26.944Z,10.28
2018-05-03T00:48:52.715Z,10.11
2018-05-03T00:51:18.488Z,10.12
2018-05-03T00:53:44.267Z,10.15
2018-05-03T00:56:10.196Z,10.02
2018-05-03T00:58:35.998Z,10.11
2018-05-03T01:01:01.823Z,10.06
2018-05-03T01:03:27.926Z,10.04
2018-05-03T01:05:53.710Z,10.19
2018-05-03T01:08:19.507Z,10.15
2018-05-03T01:10:45.689Z,10.18
2018-05-03T01:13:11.469Z,10.31
2018-05-03T01:15:37.236Z,10.14
2018-05-03T01:18:03.051Z,10.07
2018-05-03T01:20:28.845Z,10.01
2018-05-03T01:22:54.661Z,10.07
2018-05-03T01:25:20.485Z,10.22
2018-05-03T01:27:46.277Z,10.12
2018-05-03T01:30:12.080Z,10.15
2018-05-03T01:32:37.882Z,10.11
2018-05-03T01:35:16.158Z,10.00
2018-05-03T01:37:42.276Z,10.28
2018-05-03T01:40:08.066Z,10.39
2018-05-03T01:42:33.870Z,10.62
2018-05-03T01:44:59.697Z,10.39
2018-05-03T01:47:25.469Z,10.24
2018-05-03T01:49:51.270Z,10.05
2018-05-03T01:52:17.307Z,10.20
2018-05-03T01:54:43.097Z,10.25
2018-05-03T01:57:08.877Z,9.87
2018-05-03T01:59:34.677Z,9.62
2018-05-03T02:02:00.484Z,9.53
2018-05-03T02:04:26.277Z,9.56
2018-05-03T02:06:52.506Z,9.54
2018-05-03T02:09:18.305Z,9.52
2018-05-03T02:11:44.107Z,9.57
2018-05-03T02:14:10.205Z,9.56
2018-05-03T02:16:35.999Z,9.47
2018-05-03T02:19:01.829Z,9.42
2018-05-03T02:21:27.630Z,9.45
2018-05-03T02:23:53.417Z,9.52
2018-05-03T02:26:19.189Z,9.49
2018-05-03T02:28:44.985Z,9.49
2018-05-03T02:31:10.783Z,9.47
2018-05-03T02:33:36.581Z,9.47
2018-05-03T02:36:02.478Z,9.42
2018-05-03T02:38:28.278Z,9.45
2018-05-03T02:40:54.074Z,9.43
2018-05-03T02:43:19.849Z,9.46
2018-05-03T02:45:45.642Z,9.45
2018-05-03T02:48:11.784Z,9.49
2018-05-03T02:50:37.609Z,9.49
2018-05-03T02:53:03.419Z,9.51
2018-05-03T02:55:29.229Z,9.49
2018-05-03T02:58:13.812Z,9.49
2018-05-03T03:00:58.326Z,9.46
2018-05-03T03:03:42.813Z,9.49
2018-05-03T03:06:27.250Z,9.46
2018-05-03T03:09:12.355Z,9.46
2018-05-03T03:11:56.874Z,9.48
2018-05-03T03:14:41.431Z,9.52
2018-05-03T03:17:25.872Z,9.46
2018-05-03T03:20:10.373Z,9.46
2018-05-03T03:22:54.786Z,9.36
2018-05-03T03:25:37.953Z,9.32
2018-05-03T03:28:22.444Z,9.29
2018-05-03T03:31:06.909Z,9.34
2018-05-03T03:33:45.210Z,9.36
2018-05-03T03:39:21.518Z,9.27
2018-05-03T03:41:47.340Z,9.15
2018-05-03T03:47:08.131Z,9.13
2018-05-03T03:49:33.930Z,9.13
2018-05-03T03:51:59.756Z,9.14
2018-05-03T03:54:25.529Z,9.16
2018-05-03T03:56:51.310Z,9.14
2018-05-03T03:59:17.090Z,9.17
2018-05-03T04:01:42.930Z,9.08
2018-05-03T04:04:08.959Z,9.06
2018-05-03T04:06:34.764Z,9.05
2018-05-03T04:09:00.537Z,9.09
2018-05-03T04:11:26.630Z,9.08
2018-05-03T04:13:52.434Z,9.11
2018-05-03T04:16:18.246Z,9.19
2018-05-03T04:18:56.496Z,9.22
2018-05-03T04:21:34.608Z,9.34
2018-05-03T04:24:12.833Z,9.30
2018-05-03T04:26:38.663Z,9.36
2018-05-03T04:29:04.427Z,9.38
2018-05-03T04:31:30.543Z,9.41
2018-05-03T04:33:56.330Z,9.49
2018-05-03T04:36:22.115Z,9.59
2018-05-03T04:38:47.924Z,9.58
2018-05-03T04:41:13.701Z,9.60
2018-05-03T04:43:40.032Z,9.66
2018-05-03T04:46:05.829Z,9.73
2018-05-03T04:48:31.623Z,9.80
2018-05-03T04:50:57.439Z,9.91
2018-05-03T04:53:23.221Z,10.03
2018-05-03T04:55:55.949Z,10.07
2018-05-03T04:58:22.113Z,10.13
2018-05-03T05:00:47.908Z,10.16
2018-05-03T05:03:13.698Z,10.26
2018-05-03T05:05:39.795Z,10.29
2018-05-03T05:08:05.594Z,10.30
2018-05-03T05:10:31.395Z,10.29
2018-05-03T05:12:57.194Z,10.30
2018-05-03T05:15:22.972Z,10.33
2018-05-03T05:17:48.853Z,10.35
2018-05-03T05:20:14.581Z,10.33
2018-05-03T05:22:40.697Z,10.31
2018-05-03T05:25:06.484Z,10.30
2018-05-03T05:27:32.267Z,10.27
2018-05-03T05:29:58.058Z,10.34
2018-05-03T05:32:23.849Z,10.31
2018-05-03T05:34:49.677Z,10.33
2018-05-03T05:37:15.457Z,10.31
2018-05-03T05:39:41.246Z,10.31
2018-05-03T05:42:07.069Z,10.23
2018-05-03T05:44:32.885Z,10.32
2018-05-03T05:46:58.656Z,10.34
2018-05-03T05:49:24.500Z,10.32
2018-05-03T05:51:50.297Z,10.39
2018-05-03T05:54:16.087Z,10.43
2018-05-03T05:56:41.921Z,10.44
2018-05-03T05:59:07.724Z,10.52
2018-05-03T06:01:33.521Z,10.46
2018-05-03T06:03:59.747Z,10.46
2018-05-03T06:06:25.752Z,10.30
2018-05-03T06:08:51.525Z,10.35
2018-05-03T06:11:17.329Z,10.32
2018-05-03T06:13:43.117Z,10.29
2018-05-03T06:16:08.908Z,10.28
2018-05-03T06:18:35.149Z,10.29
2018-05-03T06:21:00.952Z,10.28
2018-05-03T06:23:26.742Z,10.29
2018-05-03T06:25:52.546Z,10.25
2018-05-03T06:28:18.334Z,10.31
2018-05-03T06:30:44.121Z,10.41
2018-05-03T06:33:10.367Z,10.43
2018-05-03T06:35:36.166Z,10.38
2018-05-03T06:38:01.971Z,10.48
2018-05-03T06:40:28.131Z,10.41
2018-05-03T06:42:53.930Z,10.40
2018-05-03T06:45:19.808Z,10.41
2018-05-03T06:47:45.567Z,10.38
2018-05-03T06:50:11.363Z,10.34
2018-05-03T06:52:37.177Z,10.31
2018-05-03T06:55:03.011Z,10.35
2018-05-03T06:57:28.794Z,10.29
2018-05-03T06:59:54.589Z,10.39
2018-05-03T07:02:20.751Z,10.50
2018-05-03T07:04:46.558Z,10.39
2018-05-03T07:07:12.342Z,10.44
2018-05-03T07:09:38.146Z,10.47
2018-05-03T07:12:03.970Z,10.48
2018-05-03T07:14:29.749Z,10.68
2018-05-03T07:16:55.589Z,10.65
2018-05-03T07:19:21.362Z,10.62
2018-05-03T07:21:47.166Z,10.63
2018-05-03T07:24:12.969Z,10.61
2018-05-03T07:26:38.762Z,10.66
2018-05-03T07:29:04.528Z,10.68
2018-05-03T07:31:30.348Z,10.80
2018-05-03T07:33:56.180Z,10.88
2018-05-03T07:36:22.007Z,10.96
2018-05-03T07:38:47.866Z,11.02
2018-05-03T07:41:13.619Z,10.96
2018-05-03T07:43:39.461Z,10.98
2018-05-03T07:46:05.272Z,11.03
2018-05-03T07:48:31.342Z,11.25
2018-05-03T07:50:57.458Z,11.41
2018-05-03T07:53:23.575Z,11.72
2018-05-03T07:55:49.387Z,11.74
2018-05-03T07:58:15.388Z,11.59
2018-05-03T08:00:41.222Z,11.36
2018-05-03T08:03:07.009Z,11.40
2018-05-03T08:05:33.215Z,11.51
2018-05-03T08:07:59.058Z,11.54
2018-05-03T08:10:24.853Z,11.59
2018-05-03T08:12:50.656Z,11.60
2018-05-03T08:15:16.737Z,11.49
2018-05-03T08:17:43.497Z,11.46
2018-05-03T08:20:09.295Z,11.70
2018-05-03T08:22:35.094Z,11.86
2018-05-03T08:25:00.915Z,11.86
2018-05-03T08:27:26.732Z,12.05
2018-05-03T08:29:52.520Z,12.11
2018-05-03T08:32:18.338Z,12.24
2018-05-03T08:34:44.133Z,12.34
2018-05-03T08:37:09.899Z,12.27
2018-05-03T08:39:35.708Z,12.22
2018-05-03T08:42:01.505Z,12.18
2018-05-03T08:44:34.191Z,12.10
2018-05-03T08:46:59.996Z,12.29
2018-05-03T08:49:25.778Z,12.16
2018-05-03T08:51:51.611Z,12.37
2018-05-03T08:54:17.385Z,12.43
2018-05-03T08:56:43.167Z,12.58
2018-05-03T08:59:08.979Z,12.63
2018-05-03T09:01:34.794Z,12.81
2018-05-03T09:04:07.546Z,13.59
2018-05-03T09:06:33.365Z,13.32
2018-05-03T09:08:59.215Z,13.26
2018-05-03T09:11:25.008Z,13.07
2018-05-03T09:13:50.797Z,13.20
2018-05-03T09:16:16.615Z,13.45
2018-05-03T09:18:42.762Z,13.47
2018-05-03T09:21:08.886Z,13.50
2018-05-03T09:23:34.946Z,13.36
2018-05-03T09:26:00.738Z,13.41
2018-05-03T09:28:26.534Z,13.56
2018-05-03T09:30:52.451Z,13.60
2018-05-03T09:33:18.267Z,13.76
2018-05-03T09:35:44.053Z,13.73
2018-05-03T09:38:10.169Z,13.51
2018-05-03T09:40:35.995Z,13.30
2018-05-03T09:43:01.776Z,13.59
2018-05-03T09:45:27.582Z,13.67
2018-05-03T09:47:53.377Z,13.81
2018-05-03T09:50:19.209Z,14.02
2018-05-03T09:52:45.039Z,13.92
2018-05-03T09:55:10.825Z,14.16
2018-05-03T09:57:36.676Z,14.24
2018-05-03T10:00:02.461Z,14.28
2018-05-03T10:02:28.275Z,14.04
2018-05-03T10:04:54.115Z,13.98
2018-05-03T10:07:19.873Z,14.24
2018-05-03T10:09:45.677Z,14.50
2018-05-03T10:12:11.453Z,14.54
2018-05-03T10:14:37.267Z,14.66
2018-05-03T10:17:03.114Z,14.91
2018-05-03T10:19:28.889Z,14.54
2018-05-03T10:21:54.691Z,14.81
2018-05-03T10:24:20.493Z,15.00
2018-05-03T10:26:46.286Z,14.76
2018-05-03T10:29:12.077Z,14.69
2018-05-03T10:31:37.877Z,14.80
2018-05-03T10:34:03.686Z,15.01
2018-05-03T10:36:29.490Z,14.81
2018-05-03T10:38:55.721Z,14.76
2018-05-03T10:41:21.511Z,14.60
2018-05-03T10:43:47.301Z,14.72
2018-05-03T10:46:13.113Z,14.67
2018-05-03T10:48:39.175Z,14.64
2018-05-03T10:51:05.947Z,14.86
2018-05-03T10:53:31.733Z,14.72
2018-05-03T10:55:57.693Z,14.40
2018-05-03T10:58:24.017Z,14.54
2018-05-03T11:00:50.634Z,14.68
2018-05-03T11:03:16.420Z,14.62
2018-05-03T11:05:43.169Z,14.79
2018-05-03T11:08:08.970Z,14.83
2018-05-03T11:10:34.793Z,14.47
2018-05-03T11:13:00.585Z,14.50
2018-05-03T11:15:26.362Z,14.62
2018-05-03T11:17:52.159Z,14.56
2018-05-03T11:20:17.941Z,14.61
2018-05-03T11:22:43.876Z,14.97
2018-05-03T11:25:09.701Z,14.96
2018-05-03T11:27:35.785Z,14.90
2018-05-03T11:30:01.595Z,15.02
2018-05-03T11:32:27.408Z,15.02
2018-05-03T11:34:53.194Z,14.97
2018-05-03T11:37:19.015Z,14.82
2018-05-03T11:39:49.178Z,14.89
2018-05-03T11:42:14.981Z,14.98
2018-05-03T11:44:40.753Z,14.85
2018-05-03T11:47:06.573Z,14.77
2018-05-03T11:49:39.308Z,14.55
2018-05-03T11:52:05.113Z,14.63
2018-05-03T11:54:30.974Z,14.60
2018-05-03T11:56:56.765Z,14.62
2018-05-03T11:59:22.605Z,14.80
2018-05-03T12:01:48.367Z,14.78
2018-05-03T12:04:14.254Z,14.98
2018-05-03T12:06:40.091Z,14.96
2018-05-03T12:09:05.866Z,14.82
2018-05-03T12:11:31.653Z,15.05
2018-05-03T12:13:57.681Z,15.32
2018-05-03T12:16:23.484Z,15.78
2018-05-03T12:18:49.270Z,15.82
2018-05-03T12:21:15.077Z,15.48
2018-05-03T12:23:40.849Z,15.51
2018-05-03T12:26:06.681Z,16.06
2018-05-03T12:28:32.457Z,16.61
2018-05-03T12:30:58.269Z,16.70
2018-05-03T12:33:24.072Z,16.45
2018-05-03T12:35:49.858Z,16.39
2018-05-03T12:38:15.674Z,16.51
2018-05-03T12:40:41.477Z,16.52
2018-05-03T12:43:07.253Z,16.81
2018-05-03T12:45:35.202Z,16.98
2018-05-03T12:48:01.003Z,17.28
2018-05-03T12:50:26.825Z,17.73
2018-05-03T12:52:59.794Z,16.95
2018-05-03T12:55:25.913Z,17.54
2018-05-03T12:57:51.698Z,17.88
2018-05-03T13:00:17.501Z,17.59
2018-05-03T13:02:43.843Z,17.67
2018-05-03T13:05:09.653Z,17.40
2018-05-03T13:07:35.454Z,16.98
2018-05-03T13:10:01.277Z,17.58
2018-05-03T13:12:27.069Z,17.01
2018-05-03T13:14:52.900Z,16.72
2018-05-03T13:17:18.702Z,16.81
2018-05-03T13:19:44.488Z,17.10
2018-05-03T13:22:10.277Z,17.13
2018-05-03T13:24:36.079Z,16.93
2018-05-03T13:27:02.278Z,16.97
2018-05-03T13:29:28.063Z,16.93
2018-05-03T13:31:53.876Z,16.75
2018-05-03T13:34:19.685Z,16.72
2018-05-03T13:36:45.470Z,17.00
2018-05-03T13:39:11.266Z,17.93
2018-05-03T13:41:37.397Z,17.75
2018-05-03T13:44:03.220Z,17.86
2018-05-03T13:46:29.002Z,18.00
2018-05-03T13:48:54.801Z,18.07
2018-05-03T13:51:20.598Z,18.94
2018-05-03T13:53:46.384Z,18.71
2018-05-03T13:56:12.210Z,18.98
2018-05-03T13:58:38.025Z,18.68
2018-05-03T14:01:03.856Z,19.01
2018-05-03T14:03:29.706Z,19.05
2018-05-03T14:05:55.502Z,18.85
2018-05-03T14:08:21.295Z,18.94
2018-05-03T14:10:47.108Z,18.96
2018-05-03T14:13:12.900Z,19.03
2018-05-03T14:15:38.674Z,19.76
2018-05-03T14:18:04.457Z,19.70
2018-05-03T14:20:30.242Z,19.61
2018-05-03T14:22:56.044Z,18.76
2018-05-03T14:25:21.856Z,18.58
2018-05-03T14:27:47.647Z,18.75
2018-05-03T14:30:13.458Z,17.75
2018-05-03T14:32:39.251Z,17.89
2018-05-03T14:35:05.045Z,17.71
2018-05-03T14:37:30.843Z,18.08
2018-05-03T14:39:56.626Z,17.26
2018-05-03T14:42:22.402Z,17.51
2018-05-03T14:44:48.201Z,17.41
2018-05-03T14:47:14.021Z,17.63
2018-05-03T14:49:39.778Z,17.56
2018-05-03T14:52:05.608Z,17.52
2018-05-03T14:54:31.426Z,17.70
2018-05-03T14:56:57.213Z,17.84
2018-05-03T14:59:22.998Z,17.73
2018-05-03T15:01:48.796Z,17.30
2018-05-03T15:04:14.600Z,16.87
2018-05-03T15:06:40.457Z,16.65
2018-05-03T15:09:06.232Z,16.52
2018-05-03T15:11:32.019Z,16.11
2018-05-03T15:13:57.850Z,15.90
2018-05-03T15:16:23.672Z,15.82
2018-05-03T15:18:49.434Z,15.74
2018-05-03T15:21:15.228Z,15.83
2018-05-03T15:23:41.055Z,15.69
2018-05-03T15:26:06.842Z,15.73
2018-05-03T15:28:32.635Z,15.98
2018-05-03T15:30:58.454Z,15.99
2018-05-03T15:33:24.226Z,16.16
2018-05-03T15:35:50.020Z,15.95
2018-05-03T15:38:15.830Z,16.18
2018-05-03T15:40:41.606Z,16.21
2018-05-03T15:43:07.411Z,15.97
2018-05-03T15:45:33.213Z,16.03
2018-05-03T15:47:59.005Z,16.00
2018-05-03T15:50:24.793Z,16.13
2018-05-03T15:52:50.576Z,16.03
2018-05-03T15:55:16.564Z,16.26
2018-05-03T15:57:42.366Z,16.02
2018-05-03T16:00:08.167Z,15.87
2018-05-03T16:02:33.976Z,15.90
2018-05-03T16:04:59.761Z,15.93
2018-05-03T16:07:25.934Z,16.23
2018-05-03T16:09:51.713Z,15.78
2018-05-03T16:12:17.624Z,15.80
2018-05-03T16:14:43.470Z,15.77
2018-05-03T16:17:09.255Z,15.60
2018-05-03T16:19:35.089Z,15.37
2018-05-03T16:22:00.868Z,15.54
2018-05-03T16:24:26.683Z,15.13
2018-05-03T16:26:52.506Z,15.36
2018-05-03T16:29:18.315Z,15.34
2018-05-03T16:31:44.138Z,15.23
2018-05-03T16:34:09.954Z,15.20
2018-05-03T16:36:35.739Z,14.91
2018-05-03T16:39:01.532Z,14.87
2018-05-03T16:41:27.346Z,14.94
2018-05-03T16:43:53.149Z,14.81
2018-05-03T16:46:18.946Z,14.79
2018-05-03T16:48:44.764Z,14.74
2018-05-03T16:51:10.584Z,14.59
2018-05-03T16:53:36.364Z,14.58
2018-05-03T16:56:02.749Z,14.55
2018-05-03T16:58:28.554Z,14.51
2018-05-03T17:00:54.341Z,14.33
2018-05-03T17:03:20.165Z,14.31
2018-05-03T17:05:45.958Z,14.50
2018-05-03T17:08:11.847Z,14.55
2018-05-03T17:10:37.641Z,14.36
2018-05-03T17:13:03.483Z,14.18
2018-05-03T17:15:29.281Z,14.15
2018-05-03T17:17:55.082Z,14.04
2018-05-03T17:20:21.237Z,14.09
2018-05-03T17:22:47.021Z,14.12
2018-05-03T17:25:12.824Z,13.99
2018-05-03T17:27:38.626Z,14.02
2018-05-03T17:30:04.418Z,14.09
2018-05-03T17:32:30.224Z,14.03
2018-05-03T17:34:56.023Z,13.94
2018-05-03T17:37:21.805Z,13.95
2018-05-03T17:39:47.629Z,14.04
2018-05-03T17:42:13.421Z,13.82
2018-05-03T17:44:39.226Z,13.82
2018-05-03T17:47:05.001Z,13.83
2018-05-03T17:49:30.792Z,13.78
2018-05-03T17:51:56.620Z,13.72
2018-05-03T17:54:22.406Z,13.64
2018-05-03T17:56:48.208Z,13.88
2018-05-03T17:59:13.988Z,13.33
2018-05-03T18:01:39.840Z,13.36
2018-05-03T18:04:05.628Z,13.48
2018-05-03T18:06:31.407Z,13.57
2018-05-03T18:08:57.196Z,13.31
2018-05-03T18:11:22.976Z,13.07
2018-05-03T18:13:48.793Z,13.13
2018-05-03T18:16:14.746Z,13.04
2018-05-03T18:18:40.474Z,13.03
2018-05-03T18:21:06.427Z,12.90
2018-05-03T18:23:32.213Z,12.70
2018-05-03T18:25:58.009Z,12.74
2018-05-03T18:28:24.149Z,12.65
2018-05-03T18:30:49.977Z,12.57
2018-05-03T18:33:15.753Z,12.57
2018-05-03T18:35:41.550Z,12.55
2018-05-03T18:38:07.416Z,12.61
2018-05-03T18:40:33.547Z,12.53
2018-05-03T18:42:59.324Z,12.33
2018-05-03T18:45:25.102Z,12.19
2018-05-03T18:47:51.106Z,12.20
2018-05-03T18:50:16.927Z,12.03
2018-05-03T18:52:42.713Z,11.96
2018-05-03T18:55:08.499Z,11.90
2018-05-03T18:57:34.293Z,11.93
2018-05-03T19:00:00.155Z,11.88
2018-05-03T19:02:25.930Z,11.77
2018-05-03T19:04:51.731Z,11.69
2018-05-03T19:07:17.965Z,11.64
2018-05-03T19:09:43.787Z,11.66
2018-05-03T19:12:09.594Z,11.42
2018-05-03T19:14:35.474Z,11.40
2018-05-03T19:17:01.208Z,11.40
2018-05-03T19:19:27.002Z,11.30
2018-05-03T19:21:52.822Z,11.12
2018-05-03T19:24:18.619Z,11.10
2018-05-03T19:26:44.434Z,11.06
2018-05-03T19:29:10.531Z,11.07
2018-05-03T19:31:36.318Z,10.99
2018-05-03T19:34:02.092Z,10.79
2018-05-03T19:36:27.904Z,10.72
2018-05-03T19:38:53.696Z,10.66
2018-05-03T19:41:19.482Z,10.63
2018-05-03T19:43:45.296Z,10.63
2018-05-03T19:46:11.077Z,10.67
2018-05-03T19:48:36.857Z,10.53
2018-05-03T19:51:02.711Z,10.51
2018-05-03T19:53:28.498Z,10.46
2018-05-03T19:55:54.281Z,10.46
2018-05-03T19:58:20.091Z,10.54
2018-05-03T20:00:46.272Z,10.63
2018-05-03T20:03:12.079Z,10.49
2018-05-03T20:05:37.866Z,10.38
2018-05-03T20:08:04.173Z,10.39
2018-05-03T20:10:29.962Z,10.15
2018-05-03T20:12:55.738Z,10.00
2018-05-03T20:15:21.561Z,10.08
2018-05-03T20:17:47.650Z,10.06
2018-05-03T20:20:13.446Z,9.99
2018-05-03T20:22:39.240Z,9.87
2018-05-03T20:25:05.371Z,9.74
2018-05-03T20:27:31.173Z,9.69
2018-05-03T20:30:03.951Z,9.78
2018-05-03T20:32:29.749Z,9.63
2018-05-03T20:34:55.538Z,9.51
2018-05-03T20:37:21.352Z,9.36
2018-05-03T20:39:47.223Z,9.22
2018-05-03T20:42:12.921Z,9.26
2018-05-03T20:44:38.743Z,9.29
2018-05-03T20:47:04.546Z,9.23
2018-05-03T20:49:30.329Z,9.16
2018-05-03T20:51:56.211Z,9.03
2018-05-03T20:54:21.921Z,9.00
2018-05-03T20:56:47.702Z,8.96
2018-05-03T20:59:13.491Z,8.99
2018-05-03T21:01:39.285Z,9.04
2018-05-03T21:04:05.080Z,9.44
2018-05-03T21:06:30.878Z,10.05
2018-05-03T21:08:56.817Z,9.97
2018-05-03T21:11:22.627Z,9.96
2018-05-03T21:13:48.422Z,9.91
2018-05-03T21:16:14.241Z,10.15
2018-05-03T21:18:40.013Z,10.01
2018-05-03T21:21:05.831Z,9.73
2018-05-03T21:23:31.606Z,9.72
2018-05-03T21:25:57.406Z,10.03
2018-05-03T21:28:23.205Z,10.05
2018-05-03T21:30:49.014Z,10.05
2018-05-03T21:33:14.865Z,10.02
2018-05-03T21:35:40.662Z,10.18
2018-05-03T21:38:06.441Z,10.25
2018-05-03T21:40:32.252Z,10.13
2018-05-03T21:42:58.032Z,9.91
2018-05-03T21:45:23.817Z,10.01
2018-05-03T21:47:50.046Z,9.87
2018-05-03T21:50:15.830Z,9.27
2018-05-03T21:52:41.612Z,9.10
2018-05-03T21:55:07.398Z,9.27
2018-05-03T21:57:33.185Z,9.18
2018-05-03T21:59:58.978Z,9.70
2018-05-03T22:02:24.794Z,9.70
2018-05-03T22:04:50.601Z,9.38
2018-05-03T22:07:16.441Z,8.74
2018-05-03T22:09:42.223Z,9.24
2018-05-03T22:12:08.342Z,8.38
2018-05-03T22:14:34.117Z,8.98
2018-05-03T22:16:59.907Z,9.10
2018-05-03T22:19:25.896Z,9.05
2018-05-03T22:21:51.725Z,9.36
2018-05-03T22:24:17.563Z,8.83
2018-05-03T22:26:43.664Z,8.75
2018-05-03T22:29:09.458Z,8.92
2018-05-03T22:31:35.257Z,8.54
2018-05-03T22:34:01.050Z,8.07
2018-05-03T22:36:26.838Z,8.17
2018-05-03T22:38:52.945Z,8.31
2018-05-03T22:41:18.748Z,8.48
2018-05-03T22:43:44.540Z,8.68
2018-05-03T22:46:10.332Z,8.28
2018-05-03T22:48:36.136Z,8.76
2018-05-03T22:51:01.945Z,8.77
2018-05-03T22:53:27.737Z,8.10
2018-05-03T22:55:53.533Z,8.45
2018-05-03T22:58:19.334Z,8.03
2018-05-03T23:00:45.149Z,7.68
2018-05-03T23:03:11.345Z,8.16
2018-05-03T23:05:37.131Z,8.73
2018-05-03T23:08:02.909Z,8.67
2018-05-03T23:10:28.691Z,8.96
2018-05-03T23:12:54.493Z,8.63
2018-05-03T23:15:20.295Z,8.70
2018-05-03T23:17:46.100Z,8.23
2018-05-03T23:20:11.952Z,8.00
2018-05-03T23:22:37.729Z,8.22
2018-05-03T23:25:03.515Z,7.22
2018-05-03T23:27:29.319Z,7.15
2018-05-03T23:29:55.101Z,7.35
2018-05-03T23:32:20.890Z,7.72
2018-05-03T23:34:46.694Z,8.11
2018-05-03T23:37:12.472Z,8.43
2018-05-03T23:39:38.284Z,8.22
2018-05-03T23:42:04.077Z,8.34
2018-05-03T23:44:29.856Z,7.95
2018-05-03T23:46:55.662Z,7.99
2018-05-03T23:51:47.126Z,7.57
2018-05-03T23:54:13.120Z,7.73
2018-05-03T23:56:38.910Z,7.36
2018-05-03T23:59:04.690Z,7.60
